Погода Массагуетна 2 недели

Майо-Кеби, Чад

27 мая-09 июня
  • 27мая
    Сегодня
    +29°
    +43°
    Облачно с прояснениями
    ВремяПогодаТемператураВлажностьДавлениеВетер, м/сВероятность осадков
    01:00Ясно и безоблачно+31°C42 %734 мм2.8 м/с2 %
    04:00Ясно и безоблачно+30°C46 %733 мм2.9 м/с2 %
    07:00Ясно и безоблачно+30°C44 %734 мм2.2 м/с2 %
    10:00Практически безоблачно+37°C27 %735 мм3.2 м/с2 %
    13:00Облачно с прояснениями+41°C18 %732 мм1.1 м/с2 %
    16:00Ясно и безоблачно+42°C16 %730 мм1.7 м/с2 %
    19:00Ясно и безоблачно+39°C19 %731 мм1.7 м/с2 %
    22:00Ясно и безоблачно+32°C23 %732 мм2.0 м/с2 %
  • 28мая
    Вторник
    +29°
    +44°
    Практически безоблачно
    ВремяПогодаТемператураВлажностьДавлениеВетер, м/сВероятность осадков
    01:00Ясно и безоблачно+32°C25 %732 мм2.0 м/с2 %
    04:00Ясно и безоблачно+30°C29 %732 мм2.7 м/с2 %
    07:00Ясно и безоблачно+32°C31 %733 мм2.6 м/с2 %
    10:00Ясно и безоблачно+39°C21 %733 мм3.9 м/с2 %
    13:00Практически безоблачно+43°C13 %731 мм1.1 м/с2 %
    16:00Практически безоблачно+44°C12 %730 мм1.5 м/с2 %
    19:00Небольшая облачность+39°C14 %730 мм0.7 м/с2 %
    22:00Практически безоблачно+33°C17 %731 мм2.1 м/с2 %
  • 29мая
    Среда
    +29°
    +43°
    Небольшая облачность
    ВремяПогодаТемператураВлажностьДавлениеВетер, м/сВероятность осадков
    01:00Практически безоблачно+32°C20 %731 мм2.6 м/с2 %
    04:00Ясно и безоблачно+31°C27 %731 мм2.5 м/с2 %
    07:00Ясно и безоблачно+33°C32 %733 мм3.8 м/с2 %
    10:00Ясно и безоблачно+38°C27 %733 мм5.5 м/с2 %
    13:00Небольшая облачность+42°C18 %731 мм1.6 м/с2 %
    16:00Практически безоблачно+43°C15 %730 мм0.6 м/с2 %
    19:00Ясно и безоблачно+38°C18 %730 мм1.6 м/с2 %
    22:00Ясно и безоблачно+32°C22 %731 мм1.7 м/с2 %
  • 30мая
    Четверг
    +29°
    +42°
    Ясно и безоблачно
    ВремяПогодаТемператураВлажностьДавлениеВетер, м/сВероятность осадков
    01:00Ясно и безоблачно+32°C24 %730 мм2.4 м/с2 %
    04:00Ясно и безоблачно+31°C38 %731 мм4.4 м/с2 %
    07:00Ясно и безоблачно+32°C42 %732 мм4.1 м/с2 %
    10:00Ясно и безоблачно+36°C32 %733 мм6.7 м/с2 %
    13:00Ясно и безоблачно+41°C22 %731 мм4.0 м/с6 %
    16:00Практически безоблачно+42°C20 %729 мм1.3 м/с7 %
    19:00Ясно и безоблачно+37°C24 %729 мм1.4 м/с2 %
    22:00Ясно и безоблачно+33°C29 %731 мм2.9 м/с2 %
  • 31мая
    Пятница
    +28°
    +42°
    Ясно и безоблачно
    ВремяПогодаТемператураВлажностьДавлениеВетер, м/сВероятность осадков
    01:00Ясно и безоблачно+32°C35 %730 мм2.9 м/с2 %
    04:00Ясно и безоблачно+31°C40 %731 мм3.7 м/с2 %
    07:00Ясно и безоблачно+31°C47 %733 мм5.4 м/с2 %
    10:00Ясно и безоблачно+36°C36 %734 мм5.4 м/с2 %
    13:00Ясно и безоблачно+40°C24 %732 мм3.8 м/с8 %
    16:00Небольшая облачность+41°C29 %732 мм3.8 м/с25 %
    19:00Небольшая облачность, возможен дождь с грозой+36°C45 %732 мм4.6 м/с11 %
    22:00Ясно и безоблачно+31°C53 %733 мм3.1 м/с2 %
Мы используем cookies
Соглашаюсь